sensor_id;sensor_type;location;lat;lon;timestamp;P1;durP1;ratioP1;P2;durP2;ratioP2
26574;SDS011;67165;50.256;10.978;2023-02-07T00:01:21;27.83;;;15.80;;
26574;SDS011;67165;50.256;10.978;2023-02-07T00:03:47;27.08;;;15.60;;
26574;SDS011;67165;50.256;10.978;2023-02-07T00:06:18;27.83;;;15.95;;
26574;SDS011;67165;50.256;10.978;2023-02-07T00:08:48;26.20;;;14.70;;
26574;SDS011;67165;50.256;10.978;2023-02-07T00:11:15;25.08;;;15.43;;
26574;SDS011;67165;50.256;10.978;2023-02-07T00:13:44;31.13;;;17.63;;
26574;SDS011;67165;50.256;10.978;2023-02-07T00:16:11;29.77;;;17.35;;
26574;SDS011;67165;50.256;10.978;2023-02-07T00:18:37;29.23;;;17.27;;
26574;SDS011;67165;50.256;10.978;2023-02-07T00:21:05;30.30;;;17.55;;
26574;SDS011;67165;50.256;10.978;2023-02-07T00:23:32;26.80;;;16.65;;
26574;SDS011;67165;50.256;10.978;2023-02-07T00:25:59;25.95;;;16.40;;
26574;SDS011;67165;50.256;10.978;2023-02-07T00:28:25;27.15;;;16.67;;
26574;SDS011;67165;50.256;10.978;2023-02-07T00:31:00;29.70;;;15.88;;
26574;SDS011;67165;50.256;10.978;2023-02-07T00:33:47;26.42;;;16.25;;
26574;SDS011;67165;50.256;10.978;2023-02-07T00:36:15;25.70;;;15.48;;
26574;SDS011;67165;50.256;10.978;2023-02-07T00:38:46;28.92;;;16.63;;
26574;SDS011;67165;50.256;10.978;2023-02-07T00:41:13;28.85;;;16.80;;
26574;SDS011;67165;50.256;10.978;2023-02-07T00:43:41;29.60;;;16.08;;
26574;SDS011;67165;50.256;10.978;2023-02-07T00:46:08;25.95;;;16.65;;
26574;SDS011;67165;50.256;10.978;2023-02-07T00:48:33;29.20;;;17.27;;
26574;SDS011;67165;50.256;10.978;2023-02-07T00:50:59;27.75;;;15.77;;
26574;SDS011;67165;50.256;10.978;2023-02-07T00:53:26;29.52;;;16.33;;
26574;SDS011;67165;50.256;10.978;2023-02-07T00:55:53;28.13;;;16.20;;
26574;SDS011;67165;50.256;10.978;2023-02-07T00:58:19;29.33;;;16.92;;
26574;SDS011;67165;50.256;10.978;2023-02-07T01:00:45;28.80;;;16.10;;
26574;SDS011;67165;50.256;10.978;2023-02-07T01:03:11;31.38;;;17.02;;
26574;SDS011;67165;50.256;10.978;2023-02-07T01:05:37;30.45;;;16.95;;
26574;SDS011;67165;50.256;10.978;2023-02-07T01:08:03;28.83;;;17.08;;
26574;SDS011;67165;50.256;10.978;2023-02-07T01:10:29;31.63;;;17.80;;
26574;SDS011;67165;50.256;10.978;2023-02-07T01:12:54;28.52;;;17.02;;
26574;SDS011;67165;50.256;10.978;2023-02-07T01:15:20;30.48;;;16.48;;
26574;SDS011;67165;50.256;10.978;2023-02-07T01:17:46;33.00;;;18.02;;
26574;SDS011;67165;50.256;10.978;2023-02-07T01:20:12;29.15;;;16.27;;
26574;SDS011;67165;50.256;10.978;2023-02-07T01:22:38;28.65;;;16.08;;
26574;SDS011;67165;50.256;10.978;2023-02-07T01:25:04;32.58;;;18.20;;
26574;SDS011;67165;50.256;10.978;2023-02-07T01:27:31;28.17;;;16.30;;
26574;SDS011;67165;50.256;10.978;2023-02-07T01:29:57;30.58;;;17.92;;
26574;SDS011;67165;50.256;10.978;2023-02-07T01:32:23;31.00;;;17.17;;
26574;SDS011;67165;50.256;10.978;2023-02-07T01:34:49;30.17;;;17.55;;
26574;SDS011;67165;50.256;10.978;2023-02-07T01:37:14;29.58;;;17.27;;
26574;SDS011;67165;50.256;10.978;2023-02-07T01:39:40;30.17;;;17.60;;
26574;SDS011;67165;50.256;10.978;2023-02-07T01:42:05;31.80;;;17.02;;
26574;SDS011;67165;50.256;10.978;2023-02-07T01:47:02;31.83;;;17.88;;
26574;SDS011;67165;50.256;10.978;2023-02-07T01:49:28;30.73;;;17.75;;
26574;SDS011;67165;50.256;10.978;2023-02-07T01:51:58;31.42;;;17.05;;
26574;SDS011;67165;50.256;10.978;2023-02-07T01:54:28;36.03;;;19.60;;
26574;SDS011;67165;50.256;10.978;2023-02-07T01:56:58;33.45;;;18.23;;
26574;SDS011;67165;50.256;10.978;2023-02-07T01:59:27;32.08;;;18.80;;
26574;SDS011;67165;50.256;10.978;2023-02-07T02:01:56;32.85;;;19.27;;
26574;SDS011;67165;50.256;10.978;2023-02-07T02:04:24;31.88;;;17.98;;
26574;SDS011;67165;50.256;10.978;2023-02-07T02:06:50;34.28;;;17.95;;
26574;SDS011;67165;50.256;10.978;2023-02-07T02:09:16;31.30;;;17.98;;
26574;SDS011;67165;50.256;10.978;2023-02-07T02:11:54;34.25;;;17.92;;
26574;SDS011;67165;50.256;10.978;2023-02-07T02:17:51;39.10;;;20.60;;
26574;SDS011;67165;50.256;10.978;2023-02-07T02:20:31;38.03;;;19.75;;
26574;SDS011;67165;50.256;10.978;2023-02-07T02:26:02;40.30;;;21.95;;
26574;SDS011;67165;50.256;10.978;2023-02-07T02:38:12;39.90;;;21.73;;
26574;SDS011;67165;50.256;10.978;2023-02-07T02:45:37;39.97;;;21.27;;
26574;SDS011;67165;50.256;10.978;2023-02-07T02:48:10;38.55;;;21.17;;
26574;SDS011;67165;50.256;10.978;2023-02-07T02:50:36;41.10;;;22.00;;
26574;SDS011;67165;50.256;10.978;2023-02-07T02:53:03;42.72;;;22.50;;
26574;SDS011;67165;50.256;10.978;2023-02-07T02:58:25;40.38;;;22.23;;
26574;SDS011;67165;50.256;10.978;2023-02-07T03:04:01;40.83;;;21.75;;
26574;SDS011;67165;50.256;10.978;2023-02-07T03:12:16;39.70;;;21.30;;
26574;SDS011;67165;50.256;10.978;2023-02-07T03:17:30;40.63;;;21.95;;
26574;SDS011;67165;50.256;10.978;2023-02-07T03:20:19;42.70;;;22.00;;
26574;SDS011;67165;50.256;10.978;2023-02-07T03:22:48;44.95;;;22.75;;
26574;SDS011;67165;50.256;10.978;2023-02-07T03:25:16;44.63;;;22.08;;
26574;SDS011;67165;50.256;10.978;2023-02-07T03:27:44;41.00;;;21.85;;
26574;SDS011;67165;50.256;10.978;2023-02-07T03:30:12;40.28;;;22.05;;
26574;SDS011;67165;50.256;10.978;2023-02-07T03:32:43;43.03;;;22.77;;
26574;SDS011;67165;50.256;10.978;2023-02-07T03:35:18;40.85;;;21.60;;
26574;SDS011;67165;50.256;10.978;2023-02-07T03:37:57;42.05;;;22.77;;
26574;SDS011;67165;50.256;10.978;2023-02-07T03:40:25;40.67;;;21.33;;
26574;SDS011;67165;50.256;10.978;2023-02-07T03:43:09;42.22;;;21.77;;
26574;SDS011;67165;50.256;10.978;2023-02-07T03:45:40;41.60;;;20.95;;
26574;SDS011;67165;50.256;10.978;2023-02-07T03:48:06;43.90;;;22.85;;
26574;SDS011;67165;50.256;10.978;2023-02-07T03:50:32;45.53;;;22.48;;
26574;SDS011;67165;50.256;10.978;2023-02-07T03:52:57;42.58;;;21.77;;
26574;SDS011;67165;50.256;10.978;2023-02-07T03:55:23;43.30;;;22.35;;
26574;SDS011;67165;50.256;10.978;2023-02-07T03:57:49;39.97;;;21.17;;
26574;SDS011;67165;50.256;10.978;2023-02-07T04:00:14;40.78;;;21.10;;
26574;SDS011;67165;50.256;10.978;2023-02-07T04:02:40;40.40;;;20.90;;
26574;SDS011;67165;50.256;10.978;2023-02-07T04:05:06;39.20;;;21.15;;
26574;SDS011;67165;50.256;10.978;2023-02-07T04:07:32;36.80;;;21.02;;
26574;SDS011;67165;50.256;10.978;2023-02-07T04:09:58;42.80;;;22.02;;
26574;SDS011;67165;50.256;10.978;2023-02-07T04:12:24;42.00;;;21.73;;
26574;SDS011;67165;50.256;10.978;2023-02-07T04:14:56;39.25;;;19.42;;
26574;SDS011;67165;50.256;10.978;2023-02-07T04:17:26;38.50;;;19.63;;
26574;SDS011;67165;50.256;10.978;2023-02-07T04:19:52;38.97;;;20.35;;
26574;SDS011;67165;50.256;10.978;2023-02-07T04:22:20;39.13;;;20.17;;
26574;SDS011;67165;50.256;10.978;2023-02-07T04:24:46;36.72;;;19.00;;
26574;SDS011;67165;50.256;10.978;2023-02-07T04:27:12;35.35;;;18.67;;
26574;SDS011;67165;50.256;10.978;2023-02-07T04:29:37;33.45;;;18.33;;
26574;SDS011;67165;50.256;10.978;2023-02-07T04:32:03;36.58;;;18.35;;
26574;SDS011;67165;50.256;10.978;2023-02-07T04:34:29;38.88;;;19.73;;
26574;SDS011;67165;50.256;10.978;2023-02-07T04:36:55;40.08;;;19.70;;
26574;SDS011;67165;50.256;10.978;2023-02-07T04:39:21;35.70;;;18.45;;
26574;SDS011;67165;50.256;10.978;2023-02-07T04:41:47;34.22;;;18.55;;
26574;SDS011;67165;50.256;10.978;2023-02-07T04:44:13;36.63;;;18.42;;
26574;SDS011;67165;50.256;10.978;2023-02-07T04:46:38;32.53;;;17.55;;
26574;SDS011;67165;50.256;10.978;2023-02-07T04:49:04;36.40;;;18.02;;
26574;SDS011;67165;50.256;10.978;2023-02-07T04:51:30;33.83;;;17.45;;
26574;SDS011;67165;50.256;10.978;2023-02-07T04:53:56;34.83;;;18.33;;
26574;SDS011;67165;50.256;10.978;2023-02-07T04:56:22;31.73;;;17.35;;
26574;SDS011;67165;50.256;10.978;2023-02-07T04:58:48;39.50;;;18.70;;
26574;SDS011;67165;50.256;10.978;2023-02-07T05:01:14;31.17;;;17.63;;
26574;SDS011;67165;50.256;10.978;2023-02-07T05:03:40;38.03;;;18.20;;
26574;SDS011;67165;50.256;10.978;2023-02-07T05:06:05;35.55;;;17.83;;
26574;SDS011;67165;50.256;10.978;2023-02-07T05:08:31;32.13;;;17.63;;
26574;SDS011;67165;50.256;10.978;2023-02-07T05:10:57;32.95;;;17.42;;
26574;SDS011;67165;50.256;10.978;2023-02-07T05:13:23;33.10;;;17.27;;
26574;SDS011;67165;50.256;10.978;2023-02-07T05:15:49;35.20;;;17.95;;
26574;SDS011;67165;50.256;10.978;2023-02-07T05:18:15;33.55;;;18.20;;
26574;SDS011;67165;50.256;10.978;2023-02-07T05:20:41;34.75;;;18.10;;
26574;SDS011;67165;50.256;10.978;2023-02-07T05:23:07;34.83;;;17.15;;
26574;SDS011;67165;50.256;10.978;2023-02-07T05:25:33;34.20;;;18.92;;
26574;SDS011;67165;50.256;10.978;2023-02-07T05:27:59;32.40;;;17.15;;
26574;SDS011;67165;50.256;10.978;2023-02-07T05:30:24;35.30;;;17.42;;
26574;SDS011;67165;50.256;10.978;2023-02-07T05:32:50;34.85;;;17.42;;
26574;SDS011;67165;50.256;10.978;2023-02-07T05:35:31;34.83;;;17.55;;
26574;SDS011;67165;50.256;10.978;2023-02-07T05:38:11;37.25;;;18.10;;
26574;SDS011;67165;50.256;10.978;2023-02-07T05:40:39;41.25;;;19.10;;
26574;SDS011;67165;50.256;10.978;2023-02-07T05:43:06;32.75;;;17.10;;
26574;SDS011;67165;50.256;10.978;2023-02-07T05:45:33;36.97;;;17.13;;
26574;SDS011;67165;50.256;10.978;2023-02-07T05:47:59;32.03;;;17.50;;
26574;SDS011;67165;50.256;10.978;2023-02-07T05:50:24;37.83;;;17.80;;
26574;SDS011;67165;50.256;10.978;2023-02-07T05:52:50;35.85;;;17.58;;
26574;SDS011;67165;50.256;10.978;2023-02-07T05:55:16;37.45;;;17.00;;
26574;SDS011;67165;50.256;10.978;2023-02-07T05:57:42;32.05;;;16.83;;
26574;SDS011;67165;50.256;10.978;2023-02-07T06:00:11;36.17;;;18.42;;
26574;SDS011;67165;50.256;10.978;2023-02-07T06:02:40;37.35;;;18.65;;
26574;SDS011;67165;50.256;10.978;2023-02-07T06:05:08;35.63;;;16.85;;
26574;SDS011;67165;50.256;10.978;2023-02-07T06:07:36;35.70;;;17.08;;
26574;SDS011;67165;50.256;10.978;2023-02-07T06:10:02;32.53;;;17.38;;
26574;SDS011;67165;50.256;10.978;2023-02-07T06:12:31;34.38;;;17.17;;
26574;SDS011;67165;50.256;10.978;2023-02-07T06:14:57;33.60;;;17.95;;
26574;SDS011;67165;50.256;10.978;2023-02-07T06:17:22;37.58;;;18.88;;
26574;SDS011;67165;50.256;10.978;2023-02-07T06:19:48;41.08;;;18.80;;
26574;SDS011;67165;50.256;10.978;2023-02-07T06:22:14;40.00;;;18.77;;
26574;SDS011;67165;50.256;10.978;2023-02-07T06:24:40;38.28;;;19.70;;
26574;SDS011;67165;50.256;10.978;2023-02-07T06:27:06;37.90;;;19.52;;
26574;SDS011;67165;50.256;10.978;2023-02-07T06:29:31;38.67;;;19.98;;
26574;SDS011;67165;50.256;10.978;2023-02-07T06:31:57;34.80;;;19.35;;
26574;SDS011;67165;50.256;10.978;2023-02-07T06:34:23;40.65;;;20.50;;
26574;SDS011;67165;50.256;10.978;2023-02-07T06:36:49;38.90;;;21.05;;
26574;SDS011;67165;50.256;10.978;2023-02-07T06:39:14;37.42;;;19.83;;
26574;SDS011;67165;50.256;10.978;2023-02-07T06:41:40;40.83;;;20.10;;
26574;SDS011;67165;50.256;10.978;2023-02-07T06:44:06;39.42;;;19.80;;
26574;SDS011;67165;50.256;10.978;2023-02-07T06:46:31;35.50;;;20.35;;
26574;SDS011;67165;50.256;10.978;2023-02-07T06:48:57;41.33;;;19.55;;
26574;SDS011;67165;50.256;10.978;2023-02-07T06:51:23;41.83;;;19.73;;
26574;SDS011;67165;50.256;10.978;2023-02-07T06:53:48;37.70;;;19.05;;
26574;SDS011;67165;50.256;10.978;2023-02-07T06:56:14;40.78;;;19.50;;
26574;SDS011;67165;50.256;10.978;2023-02-07T06:58:40;39.15;;;18.80;;
26574;SDS011;67165;50.256;10.978;2023-02-07T07:01:05;38.15;;;18.65;;
26574;SDS011;67165;50.256;10.978;2023-02-07T07:03:31;40.90;;;19.27;;
26574;SDS011;67165;50.256;10.978;2023-02-07T07:05:57;40.42;;;20.00;;
26574;SDS011;67165;50.256;10.978;2023-02-07T07:08:24;42.28;;;20.45;;
26574;SDS011;67165;50.256;10.978;2023-02-07T07:10:50;42.67;;;21.88;;
26574;SDS011;67165;50.256;10.978;2023-02-07T07:13:16;39.75;;;20.23;;
26574;SDS011;67165;50.256;10.978;2023-02-07T07:15:42;46.05;;;21.20;;
26574;SDS011;67165;50.256;10.978;2023-02-07T07:18:07;42.20;;;19.88;;
26574;SDS011;67165;50.256;10.978;2023-02-07T07:20:33;40.83;;;21.20;;
26574;SDS011;67165;50.256;10.978;2023-02-07T07:22:59;44.63;;;20.52;;
26574;SDS011;67165;50.256;10.978;2023-02-07T07:25:25;40.70;;;19.85;;
26574;SDS011;67165;50.256;10.978;2023-02-07T07:27:51;45.28;;;21.98;;
26574;SDS011;67165;50.256;10.978;2023-02-07T07:30:17;41.08;;;20.90;;
26574;SDS011;67165;50.256;10.978;2023-02-07T07:32:43;41.53;;;21.13;;
26574;SDS011;67165;50.256;10.978;2023-02-07T07:35:09;41.58;;;20.90;;
26574;SDS011;67165;50.256;10.978;2023-02-07T07:37:35;45.05;;;21.75;;
26574;SDS011;67165;50.256;10.978;2023-02-07T07:40:01;50.38;;;22.85;;
26574;SDS011;67165;50.256;10.978;2023-02-07T07:42:26;44.92;;;22.38;;
26574;SDS011;67165;50.256;10.978;2023-02-07T07:44:52;44.83;;;21.02;;
26574;SDS011;67165;50.256;10.978;2023-02-07T07:47:18;45.53;;;22.35;;
26574;SDS011;67165;50.256;10.978;2023-02-07T07:49:43;53.33;;;23.45;;
26574;SDS011;67165;50.256;10.978;2023-02-07T07:52:09;48.80;;;23.85;;
26574;SDS011;67165;50.256;10.978;2023-02-07T07:54:35;53.05;;;22.70;;
26574;SDS011;67165;50.256;10.978;2023-02-07T07:57:00;41.50;;;21.48;;
26574;SDS011;67165;50.256;10.978;2023-02-07T07:59:26;43.17;;;22.85;;
26574;SDS011;67165;50.256;10.978;2023-02-07T08:01:52;49.75;;;22.02;;
26574;SDS011;67165;50.256;10.978;2023-02-07T08:04:18;42.15;;;21.10;;
26574;SDS011;67165;50.256;10.978;2023-02-07T08:06:43;46.28;;;21.50;;
26574;SDS011;67165;50.256;10.978;2023-02-07T08:09:09;42.40;;;20.15;;
26574;SDS011;67165;50.256;10.978;2023-02-07T08:11:35;42.17;;;21.17;;
26574;SDS011;67165;50.256;10.978;2023-02-07T08:14:01;40.58;;;21.15;;
26574;SDS011;67165;50.256;10.978;2023-02-07T08:16:26;39.70;;;20.80;;
26574;SDS011;67165;50.256;10.978;2023-02-07T08:18:52;45.72;;;20.95;;
26574;SDS011;67165;50.256;10.978;2023-02-07T08:21:17;41.60;;;20.98;;
26574;SDS011;67165;50.256;10.978;2023-02-07T08:23:43;41.17;;;19.80;;
26574;SDS011;67165;50.256;10.978;2023-02-07T08:26:09;38.40;;;18.63;;
26574;SDS011;67165;50.256;10.978;2023-02-07T08:28:34;32.88;;;17.20;;
26574;SDS011;67165;50.256;10.978;2023-02-07T08:31:01;32.15;;;16.30;;
26574;SDS011;67165;50.256;10.978;2023-02-07T08:33:27;31.38;;;15.63;;
26574;SDS011;67165;50.256;10.978;2023-02-07T08:35:53;27.30;;;14.18;;
26574;SDS011;67165;50.256;10.978;2023-02-07T08:38:19;33.85;;;16.27;;
26574;SDS011;67165;50.256;10.978;2023-02-07T08:40:44;85.65;;;28.85;;
26574;SDS011;67165;50.256;10.978;2023-02-07T08:43:11;59.97;;;23.05;;
26574;SDS011;67165;50.256;10.978;2023-02-07T08:45:40;39.35;;;17.42;;
26574;SDS011;67165;50.256;10.978;2023-02-07T08:48:09;41.22;;;17.08;;
26574;SDS011;67165;50.256;10.978;2023-02-07T08:50:35;32.45;;;15.93;;
26574;SDS011;67165;50.256;10.978;2023-02-07T08:53:01;34.58;;;15.15;;
26574;SDS011;67165;50.256;10.978;2023-02-07T08:55:26;37.90;;;15.20;;
26574;SDS011;67165;50.256;10.978;2023-02-07T08:57:52;32.38;;;15.45;;
26574;SDS011;67165;50.256;10.978;2023-02-07T09:00:17;31.77;;;13.90;;
26574;SDS011;67165;50.256;10.978;2023-02-07T09:02:43;30.00;;;14.60;;
26574;SDS011;67165;50.256;10.978;2023-02-07T09:05:10;28.25;;;14.13;;
26574;SDS011;67165;50.256;10.978;2023-02-07T09:07:36;31.55;;;14.48;;
26574;SDS011;67165;50.256;10.978;2023-02-07T09:10:03;26.23;;;13.65;;
26574;SDS011;67165;50.256;10.978;2023-02-07T09:12:31;32.38;;;15.98;;
26574;SDS011;67165;50.256;10.978;2023-02-07T09:14:57;27.42;;;13.90;;
26574;SDS011;67165;50.256;10.978;2023-02-07T09:17:23;28.65;;;13.52;;
26574;SDS011;67165;50.256;10.978;2023-02-07T09:19:49;29.20;;;14.45;;
26574;SDS011;67165;50.256;10.978;2023-02-07T09:22:15;30.90;;;14.05;;
26574;SDS011;67165;50.256;10.978;2023-02-07T09:24:41;24.55;;;13.55;;
26574;SDS011;67165;50.256;10.978;2023-02-07T09:27:06;27.52;;;13.13;;
26574;SDS011;67165;50.256;10.978;2023-02-07T09:29:32;30.55;;;14.95;;
26574;SDS011;67165;50.256;10.978;2023-02-07T09:31:58;28.90;;;15.55;;
26574;SDS011;67165;50.256;10.978;2023-02-07T09:34:23;25.52;;;14.07;;
26574;SDS011;67165;50.256;10.978;2023-02-07T09:36:49;25.77;;;14.60;;
26574;SDS011;67165;50.256;10.978;2023-02-07T09:39:15;24.85;;;12.85;;
26574;SDS011;67165;50.256;10.978;2023-02-07T09:41:48;25.75;;;13.30;;
26574;SDS011;67165;50.256;10.978;2023-02-07T09:44:41;21.00;;;12.15;;
26574;SDS011;67165;50.256;10.978;2023-02-07T09:47:09;26.10;;;13.43;;
26574;SDS011;67165;50.256;10.978;2023-02-07T09:52:36;25.50;;;11.88;;
26574;SDS011;67165;50.256;10.978;2023-02-07T09:55:22;24.80;;;9.48;;
26574;SDS011;67165;50.256;10.978;2023-02-07T09:57:50;19.55;;;9.95;;
26574;SDS011;67165;50.256;10.978;2023-02-07T10:00:25;19.17;;;9.57;;
26574;SDS011;67165;50.256;10.978;2023-02-07T10:05:39;26.67;;;10.60;;
26574;SDS011;67165;50.256;10.978;2023-02-07T10:08:10;20.52;;;10.65;;
26574;SDS011;67165;50.256;10.978;2023-02-07T10:10:46;21.23;;;9.95;;
26574;SDS011;67165;50.256;10.978;2023-02-07T10:13:46;26.67;;;11.27;;
26574;SDS011;67165;50.256;10.978;2023-02-07T10:16:25;17.85;;;10.07;;
26574;SDS011;67165;50.256;10.978;2023-02-07T10:19:06;23.13;;;10.45;;
26574;SDS011;67165;50.256;10.978;2023-02-07T10:21:50;17.10;;;9.32;;
26574;SDS011;67165;50.256;10.978;2023-02-07T10:30:27;18.73;;;9.75;;
26574;SDS011;67165;50.256;10.978;2023-02-07T10:32:54;17.77;;;9.23;;
26574;SDS011;67165;50.256;10.978;2023-02-07T10:35:30;16.05;;;9.38;;
26574;SDS011;67165;50.256;10.978;2023-02-07T10:38:01;17.73;;;8.98;;
26574;SDS011;67165;50.256;10.978;2023-02-07T10:40:30;18.05;;;9.25;;
26574;SDS011;67165;50.256;10.978;2023-02-07T10:43:25;19.45;;;9.25;;
26574;SDS011;67165;50.256;10.978;2023-02-07T10:45:57;18.20;;;9.35;;
26574;SDS011;67165;50.256;10.978;2023-02-07T10:48:25;18.60;;;9.53;;
26574;SDS011;67165;50.256;10.978;2023-02-07T10:50:52;17.83;;;8.43;;
26574;SDS011;67165;50.256;10.978;2023-02-07T10:56:17;17.63;;;8.30;;
26574;SDS011;67165;50.256;10.978;2023-02-07T10:58:46;13.77;;;7.63;;
26574;SDS011;67165;50.256;10.978;2023-02-07T11:01:19;12.63;;;8.02;;
26574;SDS011;67165;50.256;10.978;2023-02-07T11:03:46;17.55;;;9.25;;
26574;SDS011;67165;50.256;10.978;2023-02-07T11:06:14;14.20;;;7.30;;
26574;SDS011;67165;50.256;10.978;2023-02-07T11:09:09;14.13;;;7.30;;
26574;SDS011;67165;50.256;10.978;2023-02-07T11:11:51;12.35;;;7.22;;
26574;SDS011;67165;50.256;10.978;2023-02-07T11:14:19;11.65;;;6.43;;
26574;SDS011;67165;50.256;10.978;2023-02-07T11:16:51;10.90;;;6.38;;
26574;SDS011;67165;50.256;10.978;2023-02-07T11:19:19;13.65;;;6.88;;
26574;SDS011;67165;50.256;10.978;2023-02-07T11:21:51;14.02;;;6.70;;
26574;SDS011;67165;50.256;10.978;2023-02-07T11:24:37;12.88;;;6.80;;
26574;SDS011;67165;50.256;10.978;2023-02-07T11:32:13;11.25;;;6.38;;
26574;SDS011;67165;50.256;10.978;2023-02-07T11:39:44;10.80;;;6.20;;
26574;SDS011;67165;50.256;10.978;2023-02-07T11:42:12;8.70;;;5.28;;
26574;SDS011;67165;50.256;10.978;2023-02-07T11:44:43;10.02;;;5.65;;
26574;SDS011;67165;50.256;10.978;2023-02-07T11:47:21;10.73;;;5.72;;
26574;SDS011;67165;50.256;10.978;2023-02-07T11:49:55;12.73;;;6.53;;
26574;SDS011;67165;50.256;10.978;2023-02-07T11:52:25;11.43;;;6.07;;
26574;SDS011;67165;50.256;10.978;2023-02-07T11:54:52;10.70;;;6.28;;
26574;SDS011;67165;50.256;10.978;2023-02-07T11:57:21;12.13;;;7.22;;
26574;SDS011;67165;50.256;10.978;2023-02-07T11:59:50;10.60;;;6.28;;
26574;SDS011;67165;50.256;10.978;2023-02-07T12:02:25;12.23;;;6.30;;
26574;SDS011;67165;50.256;10.978;2023-02-07T12:04:53;10.90;;;6.43;;
26574;SDS011;67165;50.256;10.978;2023-02-07T12:07:22;12.35;;;7.13;;
26574;SDS011;67165;50.256;10.978;2023-02-07T12:09:57;12.65;;;7.22;;
26574;SDS011;67165;50.256;10.978;2023-02-07T12:15:06;12.73;;;6.70;;
26574;SDS011;67165;50.256;10.978;2023-02-07T12:25:28;10.00;;;6.13;;
26574;SDS011;67165;50.256;10.978;2023-02-07T12:28:09;12.80;;;5.80;;
26574;SDS011;67165;50.256;10.978;2023-02-07T12:31:18;10.40;;;5.65;;
26574;SDS011;67165;50.256;10.978;2023-02-07T12:33:55;6.97;;;5.00;;
26574;SDS011;67165;50.256;10.978;2023-02-07T12:36:28;9.70;;;4.97;;
26574;SDS011;67165;50.256;10.978;2023-02-07T12:41:47;7.95;;;5.00;;
26574;SDS011;67165;50.256;10.978;2023-02-07T12:44:33;11.25;;;5.25;;
26574;SDS011;67165;50.256;10.978;2023-02-07T13:02:54;9.18;;;4.82;;
26574;SDS011;67165;50.256;10.978;2023-02-07T13:11:28;8.43;;;4.72;;
26574;SDS011;67165;50.256;10.978;2023-02-07T13:25:11;7.72;;;4.18;;
26574;SDS011;67165;50.256;10.978;2023-02-07T13:27:43;14.18;;;5.07;;
26574;SDS011;67165;50.256;10.978;2023-02-07T13:30:13;10.30;;;4.85;;
26574;SDS011;67165;50.256;10.978;2023-02-07T13:32:41;9.02;;;4.15;;
26574;SDS011;67165;50.256;10.978;2023-02-07T13:35:12;8.40;;;4.45;;
26574;SDS011;67165;50.256;10.978;2023-02-07T13:43:13;6.45;;;3.53;;
26574;SDS011;67165;50.256;10.978;2023-02-07T13:46:25;5.93;;;3.00;;
26574;SDS011;67165;50.256;10.978;2023-02-07T13:49:15;4.88;;;3.35;;
26574;SDS011;67165;50.256;10.978;2023-02-07T13:57:18;8.32;;;4.95;;
26574;SDS011;67165;50.256;10.978;2023-02-07T14:02:39;6.57;;;3.50;;
26574;SDS011;67165;50.256;10.978;2023-02-07T14:05:09;12.57;;;6.63;;
26574;SDS011;67165;50.256;10.978;2023-02-07T14:07:47;7.03;;;4.15;;
26574;SDS011;67165;50.256;10.978;2023-02-07T14:15:59;7.75;;;4.30;;
26574;SDS011;67165;50.256;10.978;2023-02-07T14:21:00;6.72;;;3.80;;
26574;SDS011;67165;50.256;10.978;2023-02-07T14:34:30;8.38;;;3.90;;
26574;SDS011;67165;50.256;10.978;2023-02-07T14:37:36;6.80;;;3.60;;
26574;SDS011;67165;50.256;10.978;2023-02-07T14:40:20;8.27;;;4.20;;
26574;SDS011;67165;50.256;10.978;2023-02-07T14:43:33;7.22;;;4.05;;
26574;SDS011;67165;50.256;10.978;2023-02-07T14:45:37;9.20;;;4.20;;
26574;SDS011;67165;50.256;10.978;2023-02-07T14:48:05;8.50;;;4.00;;
26574;SDS011;67165;50.256;10.978;2023-02-07T14:50:51;7.63;;;4.55;;
26574;SDS011;67165;50.256;10.978;2023-02-07T14:53:18;12.50;;;5.20;;
26574;SDS011;67165;50.256;10.978;2023-02-07T14:55:47;15.52;;;6.75;;
26574;SDS011;67165;50.256;10.978;2023-02-07T14:58:34;10.33;;;4.97;;
26574;SDS011;67165;50.256;10.978;2023-02-07T15:01:12;6.78;;;3.83;;
26574;SDS011;67165;50.256;10.978;2023-02-07T15:03:41;7.63;;;3.77;;
26574;SDS011;67165;50.256;10.978;2023-02-07T15:06:16;6.70;;;3.58;;
26574;SDS011;67165;50.256;10.978;2023-02-07T15:08:58;9.15;;;4.22;;
26574;SDS011;67165;50.256;10.978;2023-02-07T15:11:25;8.48;;;3.97;;
26574;SDS011;67165;50.256;10.978;2023-02-07T15:13:54;7.65;;;4.53;;
26574;SDS011;67165;50.256;10.978;2023-02-07T15:16:32;9.13;;;5.10;;
26574;SDS011;67165;50.256;10.978;2023-02-07T15:22:03;7.03;;;4.03;;
26574;SDS011;67165;50.256;10.978;2023-02-07T15:24:31;8.30;;;4.22;;
26574;SDS011;67165;50.256;10.978;2023-02-07T15:27:04;8.05;;;4.10;;
26574;SDS011;67165;50.256;10.978;2023-02-07T15:29:32;7.60;;;4.20;;
26574;SDS011;67165;50.256;10.978;2023-02-07T15:32:10;6.70;;;4.22;;
26574;SDS011;67165;50.256;10.978;2023-02-07T15:34:53;8.05;;;3.80;;
26574;SDS011;67165;50.256;10.978;2023-02-07T15:37:20;8.82;;;4.35;;
26574;SDS011;67165;50.256;10.978;2023-02-07T15:39:51;8.40;;;4.43;;
26574;SDS011;67165;50.256;10.978;2023-02-07T15:42:18;6.80;;;3.95;;
26574;SDS011;67165;50.256;10.978;2023-02-07T15:44:54;7.00;;;4.07;;
26574;SDS011;67165;50.256;10.978;2023-02-07T15:49:59;12.32;;;7.22;;
26574;SDS011;67165;50.256;10.978;2023-02-07T15:52:48;10.73;;;5.13;;
26574;SDS011;67165;50.256;10.978;2023-02-07T15:55:26;8.45;;;4.65;;
26574;SDS011;67165;50.256;10.978;2023-02-07T15:57:59;9.02;;;4.43;;
26574;SDS011;67165;50.256;10.978;2023-02-07T16:00:27;8.57;;;4.30;;
26574;SDS011;67165;50.256;10.978;2023-02-07T16:02:59;7.88;;;4.35;;
26574;SDS011;67165;50.256;10.978;2023-02-07T16:05:29;8.70;;;4.72;;
26574;SDS011;67165;50.256;10.978;2023-02-07T16:08:03;8.38;;;4.50;;
26574;SDS011;67165;50.256;10.978;2023-02-07T16:10:32;8.48;;;4.63;;
26574;SDS011;67165;50.256;10.978;2023-02-07T16:18:34;8.23;;;5.10;;
26574;SDS011;67165;50.256;10.978;2023-02-07T16:21:04;11.13;;;5.70;;
26574;SDS011;67165;50.256;10.978;2023-02-07T16:23:36;12.27;;;5.63;;
26574;SDS011;67165;50.256;10.978;2023-02-07T16:26:02;13.00;;;5.75;;
26574;SDS011;67165;50.256;10.978;2023-02-07T16:28:28;11.23;;;5.93;;
26574;SDS011;67165;50.256;10.978;2023-02-07T16:30:55;13.52;;;6.35;;
26574;SDS011;67165;50.256;10.978;2023-02-07T16:33:24;15.32;;;6.88;;
26574;SDS011;67165;50.256;10.978;2023-02-07T16:35:49;15.50;;;7.05;;
26574;SDS011;67165;50.256;10.978;2023-02-07T16:38:15;13.65;;;6.85;;
26574;SDS011;67165;50.256;10.978;2023-02-07T16:40:41;16.08;;;7.30;;
26574;SDS011;67165;50.256;10.978;2023-02-07T16:43:07;14.02;;;6.90;;
26574;SDS011;67165;50.256;10.978;2023-02-07T16:45:33;15.70;;;7.60;;
26574;SDS011;67165;50.256;10.978;2023-02-07T16:48:01;20.40;;;10.35;;
26574;SDS011;67165;50.256;10.978;2023-02-07T16:50:28;19.15;;;10.20;;
26574;SDS011;67165;50.256;10.978;2023-02-07T16:52:55;18.17;;;8.95;;
26574;SDS011;67165;50.256;10.978;2023-02-07T16:55:22;18.02;;;8.27;;
26574;SDS011;67165;50.256;10.978;2023-02-07T16:57:51;15.00;;;7.43;;
26574;SDS011;67165;50.256;10.978;2023-02-07T17:00:18;16.55;;;8.82;;
26574;SDS011;67165;50.256;10.978;2023-02-07T17:03:02;16.58;;;9.02;;